createdAt,value
2022-08-28T00:02:26.252Z,19.99
2022-08-28T00:04:53.407Z,19.63
2022-08-28T00:07:19.793Z,19.34
2022-08-28T00:09:46.234Z,19.10
2022-08-28T00:12:12.542Z,19.01
2022-08-28T00:14:38.918Z,19.39
2022-08-28T00:17:05.365Z,19.80
2022-08-28T00:19:34.459Z,20.07
2022-08-28T00:22:04.553Z,20.06
2022-08-28T00:24:30.883Z,19.67
2022-08-28T00:27:16.133Z,19.31
2022-08-28T00:29:45.519Z,18.98
2022-08-28T00:32:13.078Z,18.85
2022-08-28T00:34:39.398Z,19.20
2022-08-28T00:37:05.761Z,19.56
2022-08-28T00:39:32.316Z,19.57
2022-08-28T00:41:59.667Z,19.21
2022-08-28T00:44:27.111Z,18.95
2022-08-28T00:46:55.681Z,19.23
2022-08-28T00:49:27.169Z,19.35
2022-08-28T00:52:12.266Z,19.11
2022-08-28T00:54:50.485Z,19.31
2022-08-28T00:57:32.028Z,19.19
2022-08-28T00:59:58.449Z,18.90
2022-08-28T01:02:26.853Z,19.16
2022-08-28T01:04:54.074Z,19.47
2022-08-28T01:07:22.637Z,19.70
2022-08-28T01:09:52.224Z,19.81
2022-08-28T01:12:24.926Z,19.50
2022-08-28T01:14:52.940Z,19.05
2022-08-28T01:17:20.895Z,18.83
2022-08-28T01:19:55.853Z,19.13
2022-08-28T01:22:36.701Z,19.51
2022-08-28T01:25:18.773Z,19.76
2022-08-28T01:27:46.351Z,19.92
2022-08-28T01:30:16.192Z,20.03
2022-08-28T01:32:49.409Z,20.11
2022-08-28T01:35:19.360Z,20.20
2022-08-28T01:37:46.515Z,20.19
2022-08-28T01:40:19.609Z,19.77
2022-08-28T01:42:46.003Z,19.30
2022-08-28T01:45:15.328Z,18.92
2022-08-28T01:47:43.297Z,18.76
2022-08-28T01:50:12.071Z,19.05
2022-08-28T01:52:39.185Z,19.39
2022-08-28T01:55:07.617Z,19.60
2022-08-28T01:57:34.640Z,19.75
2022-08-28T02:00:01.180Z,19.83
2022-08-28T02:02:28.200Z,19.89
2022-08-28T02:04:55.090Z,19.94
2022-08-28T02:07:21.372Z,19.98
2022-08-28T02:09:47.660Z,19.99
2022-08-28T02:12:14.106Z,20.00
2022-08-28T02:14:41.151Z,20.00
2022-08-28T02:17:08.300Z,20.01
2022-08-28T02:19:34.797Z,20.02
2022-08-28T02:22:03.245Z,20.03
2022-08-28T02:24:29.533Z,20.03
2022-08-28T02:26:55.928Z,20.00
2022-08-28T02:29:22.887Z,19.97
2022-08-28T02:31:50.348Z,19.91
2022-08-28T02:34:16.643Z,19.88
2022-08-28T02:36:43.181Z,19.86
2022-08-28T02:39:10.259Z,19.84
2022-08-28T02:41:37.257Z,19.81
2022-08-28T02:44:03.767Z,19.77
2022-08-28T02:46:30.151Z,19.77
2022-08-28T02:48:56.514Z,19.78
2022-08-28T02:51:23.145Z,19.78
2022-08-28T02:53:49.836Z,19.62
2022-08-28T02:56:16.393Z,19.08
2022-08-28T02:58:42.835Z,18.69
2022-08-28T03:01:11.490Z,18.85
2022-08-28T03:03:38.934Z,19.11
2022-08-28T03:06:08.549Z,19.30
2022-08-28T03:08:34.962Z,19.43
2022-08-28T03:11:01.375Z,19.52
2022-08-28T03:13:29.512Z,19.57
2022-08-28T03:15:56.526Z,19.62
2022-08-28T03:18:26.131Z,19.62
2022-08-28T03:20:53.337Z,19.61
2022-08-28T03:23:25.714Z,19.41
2022-08-28T03:26:08.395Z,18.96
2022-08-28T03:28:41.272Z,19.08
2022-08-28T03:31:11.853Z,19.27
2022-08-28T03:33:38.335Z,19.34
2022-08-28T03:36:10.864Z,19.37
2022-08-28T03:38:37.492Z,19.37
2022-08-28T03:41:09.957Z,19.39
2022-08-28T03:43:36.371Z,19.38
2022-08-28T03:46:05.443Z,19.36
2022-08-28T03:48:35.254Z,19.33
2022-08-28T03:51:06.337Z,19.34
2022-08-28T03:53:33.284Z,19.35
2022-08-28T03:56:00.160Z,19.41
2022-08-28T03:58:27.336Z,19.44
2022-08-28T04:00:53.937Z,19.46
2022-08-28T04:03:20.969Z,19.46
2022-08-28T04:05:47.599Z,19.35
2022-08-28T04:08:16.285Z,18.97
2022-08-28T04:10:44.385Z,19.05
2022-08-28T04:13:11.373Z,19.27
2022-08-28T04:15:37.899Z,19.37
2022-08-28T04:18:04.693Z,19.29
2022-08-28T04:20:31.107Z,19.34
2022-08-28T04:22:57.477Z,19.47
2022-08-28T04:25:26.988Z,19.61
2022-08-28T04:27:53.883Z,19.73
2022-08-28T04:30:20.420Z,19.83
2022-08-28T04:32:47.175Z,19.92
2022-08-28T04:35:14.198Z,19.81
2022-08-28T04:37:40.880Z,19.34
2022-08-28T04:40:10.093Z,19.04
2022-08-28T04:42:39.638Z,19.30
2022-08-28T04:45:06.643Z,19.60
2022-08-28T04:47:37.336Z,19.87
2022-08-28T04:50:06.194Z,20.02
2022-08-28T04:52:32.877Z,20.16
2022-08-28T04:54:59.608Z,20.12
2022-08-28T04:57:27.205Z,19.69
2022-08-28T04:59:53.651Z,19.40
2022-08-28T05:02:20.177Z,19.61
2022-08-28T05:04:47.283Z,19.90
2022-08-28T05:07:13.807Z,20.16
2022-08-28T05:09:40.097Z,20.36
2022-08-28T05:12:06.626Z,20.56
2022-08-28T05:14:33.300Z,20.78
2022-08-28T05:16:59.672Z,20.93
2022-08-28T05:19:27.168Z,20.85
2022-08-28T05:21:54.200Z,20.53
2022-08-28T05:24:21.725Z,20.29
2022-08-28T05:26:48.752Z,20.21
2022-08-28T05:29:16.713Z,20.58
2022-08-28T05:31:44.070Z,21.01
2022-08-28T05:34:11.997Z,21.31
2022-08-28T05:36:39.289Z,21.57
2022-08-28T05:39:08.859Z,21.74
2022-08-28T05:41:36.706Z,21.54
2022-08-28T05:44:06.013Z,21.26
2022-08-28T05:46:32.708Z,21.08
2022-08-28T05:48:59.694Z,21.09
2022-08-28T05:51:26.378Z,21.54
2022-08-28T05:53:53.816Z,21.97
2022-08-28T05:56:28.927Z,22.35
2022-08-28T05:58:59.768Z,22.49
2022-08-28T06:01:31.883Z,22.28
2022-08-28T06:04:04.555Z,22.08
2022-08-28T06:06:33.882Z,21.94
2022-08-28T06:09:04.721Z,21.98
2022-08-28T06:11:32.073Z,22.46
2022-08-28T06:14:02.739Z,22.98
2022-08-28T06:16:32.119Z,23.30
2022-08-28T06:18:59.682Z,23.23
2022-08-28T06:21:26.103Z,23.12
2022-08-28T06:23:52.581Z,23.09
2022-08-28T06:26:19.075Z,23.12
2022-08-28T06:28:45.765Z,23.18
2022-08-28T06:31:23.646Z,23.26
2022-08-28T06:33:56.529Z,23.35
2022-08-28T06:36:26.620Z,23.43
2022-08-28T06:38:57.426Z,23.52
2022-08-28T06:41:24.620Z,23.67
2022-08-28T06:43:51.044Z,23.79
2022-08-28T06:46:17.483Z,23.88
2022-08-28T06:48:44.071Z,24.01
2022-08-28T06:51:11.770Z,24.17
2022-08-28T06:53:40.276Z,24.31
2022-08-28T06:56:10.527Z,24.47
2022-08-28T06:58:42.444Z,24.63
2022-08-28T07:01:26.239Z,24.74
2022-08-28T07:03:55.280Z,24.84
2022-08-28T07:06:22.702Z,25.01
2022-08-28T07:08:49.291Z,25.20
2022-08-28T07:11:26.056Z,25.38
2022-08-28T07:13:54.019Z,25.51
2022-08-28T07:16:23.219Z,25.64
2022-08-28T07:18:50.036Z,25.79
2022-08-28T07:21:18.095Z,25.98
2022-08-28T07:23:45.397Z,26.14
2022-08-28T07:26:15.862Z,26.32
2022-08-28T07:28:42.860Z,26.52
2022-08-28T07:31:14.882Z,26.73
2022-08-28T07:33:42.895Z,26.86
2022-08-28T07:36:15.936Z,27.01
2022-08-28T07:38:57.433Z,27.17
2022-08-28T07:41:29.481Z,27.34
2022-08-28T07:44:15.357Z,27.51
2022-08-28T07:46:42.041Z,27.72
2022-08-28T07:49:09.027Z,27.83
2022-08-28T07:51:35.889Z,27.93
2022-08-28T07:54:03.250Z,28.07
2022-08-28T07:56:30.056Z,28.23
2022-08-28T07:58:57.597Z,28.42
2022-08-28T08:01:25.912Z,28.67
2022-08-28T08:03:52.394Z,28.95
2022-08-28T08:06:28.068Z,29.26
2022-08-28T08:09:02.140Z,29.48
2022-08-28T08:11:32.212Z,29.62
2022-08-28T08:14:04.762Z,29.68
2022-08-28T08:16:34.418Z,29.75
2022-08-28T08:19:02.852Z,29.91
2022-08-28T08:21:30.574Z,30.06
2022-08-28T08:23:58.288Z,30.21
2022-08-28T08:26:27.333Z,30.46
2022-08-28T08:28:54.076Z,30.70
2022-08-28T08:31:24.007Z,31.08
2022-08-28T08:33:54.741Z,31.54
2022-08-28T08:36:22.932Z,31.80
2022-08-28T08:38:50.258Z,32.20
2022-08-28T08:41:39.437Z,32.56
2022-08-28T08:44:18.111Z,32.87
2022-08-28T08:46:50.268Z,33.40
2022-08-28T08:49:20.378Z,33.97
2022-08-28T08:52:14.808Z,34.15
2022-08-28T08:55:07.757Z,34.30
2022-08-28T08:57:35.694Z,34.73
2022-08-28T09:00:06.700Z,35.86
2022-08-28T09:02:38.318Z,36.88
2022-08-28T09:05:08.365Z,38.09
2022-08-28T09:07:39.058Z,40.44
2022-08-28T09:10:10.515Z,42.83
2022-08-28T09:13:00.330Z,45.06
2022-08-28T09:15:32.728Z,47.43
2022-08-28T09:18:11.759Z,49.29
2022-08-28T09:20:38.208Z,50.71
2022-08-28T09:23:12.433Z,50.96
2022-08-28T09:25:55.019Z,51.88
2022-08-28T09:28:27.137Z,52.56
2022-08-28T09:31:14.921Z,53.45
2022-08-28T09:33:44.587Z,54.97
2022-08-28T09:36:33.357Z,55.35
2022-08-28T09:39:48.142Z,55.89
2022-08-28T09:42:40.915Z,56.79
2022-08-28T09:45:20.593Z,56.75
2022-08-28T09:47:50.130Z,56.81
2022-08-28T09:50:16.406Z,56.69
2022-08-28T09:52:42.716Z,56.95
2022-08-28T09:55:14.161Z,57.35
2022-08-28T09:57:42.205Z,57.61
2022-08-28T10:00:09.346Z,57.96
2022-08-28T10:03:03.290Z,58.77
2022-08-28T10:05:45.317Z,59.21
2022-08-28T10:08:29.778Z,59.12
2022-08-28T10:11:01.456Z,58.64
2022-08-28T10:13:36.181Z,58.66
2022-08-28T10:16:13.325Z,58.56
2022-08-28T10:18:46.057Z,58.67
2022-08-28T10:21:14.807Z,58.95
2022-08-28T10:24:13.782Z,59.57
2022-08-28T10:26:49.125Z,60.42
2022-08-28T10:29:26.931Z,60.41
2022-08-28T10:32:29.006Z,59.72
2022-08-28T10:35:02.281Z,59.07
2022-08-28T10:37:41.832Z,58.52
2022-08-28T10:40:14.960Z,58.28
2022-08-28T10:42:44.925Z,57.50
2022-08-28T10:45:11.485Z,55.82
2022-08-28T10:47:41.295Z,54.55
2022-08-28T10:50:14.343Z,53.72
2022-08-28T10:52:47.501Z,53.15
2022-08-28T10:55:39.310Z,52.67
2022-08-28T10:58:24.302Z,52.40
2022-08-28T11:00:55.339Z,52.38
2022-08-28T11:03:34.274Z,52.43
2022-08-28T11:06:05.793Z,52.26
2022-08-28T11:08:35.147Z,52.38
2022-08-28T11:11:03.935Z,52.63
2022-08-28T11:13:54.981Z,53.01
2022-08-28T11:16:24.309Z,53.21
2022-08-28T11:19:09.202Z,53.20
2022-08-28T11:21:54.523Z,52.93
2022-08-28T11:24:30.768Z,52.18
2022-08-28T11:27:03.259Z,50.85
2022-08-28T11:29:57.741Z,49.45
2022-08-28T11:32:33.189Z,48.02
2022-08-28T11:34:59.417Z,46.51
2022-08-28T11:37:39.798Z,45.60
2022-08-28T11:40:29.367Z,44.96
2022-08-28T11:43:14.130Z,43.69
2022-08-28T11:45:47.046Z,42.66
2022-08-28T11:48:33.065Z,41.74
2022-08-28T11:51:06.891Z,41.30
2022-08-28T11:53:58.198Z,41.02
2022-08-28T11:56:40.166Z,40.56
2022-08-28T11:59:25.405Z,40.04
2022-08-28T12:02:38.759Z,39.61
2022-08-28T12:05:09.466Z,39.15
2022-08-28T12:07:38.166Z,38.66
2022-08-28T12:10:19.820Z,38.21
2022-08-28T12:12:46.242Z,37.71
2022-08-28T12:15:27.777Z,37.18
2022-08-28T12:18:01.515Z,36.69
2022-08-28T12:20:29.937Z,36.32
2022-08-28T12:23:00.463Z,36.16
2022-08-28T12:25:41.693Z,36.21
2022-08-28T12:28:22.356Z,36.51
2022-08-28T12:31:20.899Z,36.90
2022-08-28T12:34:01.527Z,37.21
2022-08-28T12:36:28.144Z,37.19
2022-08-28T12:38:59.724Z,36.79
2022-08-28T12:41:26.525Z,36.37
2022-08-28T12:43:56.131Z,35.96
2022-08-28T12:46:44.957Z,35.78
2022-08-28T12:49:31.977Z,35.57
2022-08-28T12:52:10.125Z,35.36
2022-08-28T12:54:36.476Z,35.06
2022-08-28T12:57:07.747Z,34.76
2022-08-28T12:59:39.546Z,34.47
2022-08-28T13:02:09.354Z,34.25
2022-08-28T13:04:49.315Z,34.09
2022-08-28T13:07:17.273Z,33.98
2022-08-28T13:09:47.307Z,33.86
2022-08-28T13:12:23.740Z,33.75
2022-08-28T13:15:06.090Z,33.61
2022-08-28T13:17:54.209Z,33.51
2022-08-28T13:20:30.163Z,33.45
2022-08-28T13:22:57.202Z,33.40
2022-08-28T13:25:42.019Z,33.29
2022-08-28T13:28:13.809Z,33.19
2022-08-28T13:30:40.196Z,33.03
2022-08-28T13:33:15.946Z,32.86
2022-08-28T13:35:42.296Z,32.74
2022-08-28T13:38:16.774Z,32.59
2022-08-28T13:41:03.401Z,32.40
2022-08-28T13:43:43.436Z,32.12
2022-08-28T13:46:09.769Z,31.90
2022-08-28T13:48:36.258Z,31.72
2022-08-28T13:51:10.482Z,31.61
2022-08-28T13:53:37.946Z,31.55
2022-08-28T13:56:04.665Z,31.50
2022-08-28T13:58:32.042Z,31.46
2022-08-28T14:00:59.019Z,31.38
2022-08-28T14:03:40.657Z,31.34
2022-08-28T14:06:11.199Z,31.35
2022-08-28T14:08:39.143Z,31.38
2022-08-28T14:11:06.616Z,31.40
2022-08-28T14:13:33.404Z,31.40
2022-08-28T14:16:04.526Z,31.35
2022-08-28T14:18:31.464Z,31.23
2022-08-28T14:20:57.918Z,31.09
2022-08-28T14:23:24.331Z,31.00
2022-08-28T14:25:51.660Z,30.94
2022-08-28T14:28:18.413Z,30.88
2022-08-28T14:30:49.694Z,30.87
2022-08-28T14:33:18.951Z,30.91
2022-08-28T14:35:48.390Z,30.98
2022-08-28T14:38:15.193Z,31.06
2022-08-28T14:40:42.629Z,31.14
2022-08-28T14:43:11.152Z,31.20
2022-08-28T14:45:47.734Z,31.26
2022-08-28T14:48:16.536Z,31.32
2022-08-28T14:50:46.056Z,31.37
2022-08-28T14:53:13.216Z,31.45
2022-08-28T14:55:43.179Z,31.49
2022-08-28T14:58:09.862Z,31.46
2022-08-28T15:00:54.400Z,31.38
2022-08-28T15:03:21.209Z,31.25
2022-08-28T15:05:47.531Z,31.15
2022-08-28T15:08:16.507Z,31.10
2022-08-28T15:10:43.423Z,31.09
2022-08-28T15:13:10.799Z,31.15
2022-08-28T15:15:41.556Z,31.26
2022-08-28T15:18:09.652Z,31.39
2022-08-28T15:20:40.550Z,31.43
2022-08-28T15:23:08.273Z,31.42
2022-08-28T15:25:34.827Z,31.37
2022-08-28T15:28:01.242Z,31.31
2022-08-28T15:30:27.824Z,31.25
2022-08-28T15:32:54.916Z,31.19
2022-08-28T15:35:21.446Z,31.13
2022-08-28T15:37:48.251Z,31.03
2022-08-28T15:40:33.765Z,30.92
2022-08-28T15:43:00.234Z,30.80
2022-08-28T15:45:26.780Z,30.67
2022-08-28T15:47:53.560Z,30.53
2022-08-28T15:50:20.161Z,30.37
2022-08-28T15:52:46.482Z,30.19
2022-08-28T15:55:12.840Z,30.01
2022-08-28T15:57:39.773Z,29.83
2022-08-28T16:00:10.366Z,29.63
2022-08-28T16:02:37.365Z,29.44
2022-08-28T16:05:04.500Z,29.24
2022-08-28T16:07:34.629Z,29.07
2022-08-28T16:10:06.431Z,28.90
2022-08-28T16:12:33.783Z,28.74
2022-08-28T16:15:00.399Z,28.57
2022-08-28T16:17:26.887Z,28.42
2022-08-28T16:19:53.681Z,28.26
2022-08-28T16:22:20.034Z,28.09
2022-08-28T16:24:47.049Z,27.91
2022-08-28T16:27:15.640Z,27.73
2022-08-28T16:29:43.873Z,27.56
2022-08-28T16:32:11.709Z,27.41
2022-08-28T16:34:39.221Z,27.28
2022-08-28T16:37:06.252Z,27.15
2022-08-28T16:39:35.868Z,27.01
2022-08-28T16:42:02.994Z,26.88
2022-08-28T16:44:29.365Z,26.76
2022-08-28T16:46:55.895Z,26.66
2022-08-28T16:49:23.428Z,26.55
2022-08-28T16:51:50.168Z,26.45
2022-08-28T16:54:17.526Z,26.35
2022-08-28T16:56:44.670Z,26.25
2022-08-28T16:59:15.753Z,26.14
2022-08-28T17:01:42.842Z,25.96
2022-08-28T17:04:10.188Z,25.76
2022-08-28T17:06:36.791Z,25.56
2022-08-28T17:09:04.381Z,25.35
2022-08-28T17:11:30.861Z,25.14
2022-08-28T17:13:58.736Z,24.93
2022-08-28T17:16:30.506Z,24.76
2022-08-28T17:18:58.025Z,24.57
2022-08-28T17:21:43.089Z,24.39
2022-08-28T17:24:14.101Z,24.21
2022-08-28T17:26:41.697Z,24.04
2022-08-28T17:29:08.760Z,23.90
2022-08-28T17:31:35.210Z,23.75
2022-08-28T17:34:01.734Z,23.64
2022-08-28T17:36:33.559Z,23.59
2022-08-28T17:39:06.613Z,23.72
2022-08-28T17:41:33.479Z,23.66
2022-08-28T17:44:01.998Z,23.62
2022-08-28T17:46:31.758Z,23.52
2022-08-28T17:49:01.919Z,23.50
2022-08-28T17:51:42.176Z,23.60
2022-08-28T17:54:11.971Z,23.80
2022-08-28T17:56:38.952Z,24.02
2022-08-28T17:59:05.930Z,24.05
2022-08-28T18:01:32.652Z,23.85
2022-08-28T18:03:59.324Z,23.80
2022-08-28T18:06:26.001Z,23.97
2022-08-28T18:08:52.878Z,24.03
2022-08-28T18:11:19.670Z,23.67
2022-08-28T18:13:46.437Z,23.36
2022-08-28T18:16:13.033Z,23.30
2022-08-28T18:18:40.728Z,23.50
2022-08-28T18:21:09.693Z,23.56
2022-08-28T18:23:36.756Z,23.29
2022-08-28T18:26:04.123Z,23.07
2022-08-28T18:28:32.101Z,23.13
2022-08-28T18:31:00.233Z,23.29
2022-08-28T18:33:41.925Z,23.54
2022-08-28T18:36:11.349Z,23.62
2022-08-28T18:38:38.523Z,23.59
2022-08-28T18:41:06.575Z,23.70
2022-08-28T18:43:33.450Z,23.86
2022-08-28T18:46:01.365Z,23.97
2022-08-28T18:48:28.216Z,24.05
2022-08-28T18:50:55.372Z,24.09
2022-08-28T18:53:22.666Z,24.10
2022-08-28T18:55:52.749Z,24.08
2022-08-28T18:58:22.310Z,24.03
2022-08-28T19:00:49.234Z,24.02
2022-08-28T19:03:16.066Z,24.00
2022-08-28T19:05:42.706Z,23.99
2022-08-28T19:08:09.221Z,23.98
2022-08-28T19:10:37.066Z,23.98
2022-08-28T19:13:04.608Z,23.97
2022-08-28T19:15:32.624Z,23.96
2022-08-28T19:18:00.705Z,23.94
2022-08-28T19:20:27.552Z,23.95
2022-08-28T19:22:55.235Z,23.94
2022-08-28T19:25:28.351Z,23.90
2022-08-28T19:27:59.148Z,23.86
2022-08-28T19:30:28.303Z,23.83
2022-08-28T19:32:55.492Z,23.79
2022-08-28T19:35:24.548Z,23.73
2022-08-28T19:37:52.528Z,23.64
2022-08-28T19:40:19.918Z,23.58
2022-08-28T19:42:46.499Z,23.53
2022-08-28T19:45:14.517Z,23.49
2022-08-28T19:47:41.611Z,23.39
2022-08-28T19:50:10.023Z,23.34
2022-08-28T19:52:37.233Z,23.30
2022-08-28T19:55:05.476Z,23.25
2022-08-28T19:57:32.772Z,23.24
2022-08-28T19:59:59.437Z,23.23
2022-08-28T20:02:26.531Z,23.22
2022-08-28T20:04:53.874Z,23.24
2022-08-28T20:07:21.353Z,23.24
2022-08-28T20:09:47.718Z,23.23
2022-08-28T20:12:14.157Z,23.24
2022-08-28T20:14:41.926Z,23.24
2022-08-28T20:17:08.720Z,23.24
2022-08-28T20:19:35.258Z,23.26
2022-08-28T20:22:02.462Z,23.27
2022-08-28T20:24:29.902Z,23.26
2022-08-28T20:26:56.202Z,23.24
2022-08-28T20:29:23.514Z,23.20
2022-08-28T20:31:50.545Z,23.18
2022-08-28T20:34:18.129Z,23.17
2022-08-28T20:36:44.827Z,23.19
2022-08-28T20:39:11.781Z,23.20
2022-08-28T20:41:39.883Z,23.19
2022-08-28T20:44:08.907Z,23.18
2022-08-28T20:46:40.445Z,23.16
2022-08-28T20:49:11.678Z,23.15
2022-08-28T20:52:00.185Z,23.14
2022-08-28T20:54:32.311Z,23.10
2022-08-28T20:57:02.055Z,23.07
2022-08-28T20:59:39.603Z,23.03
2022-08-28T21:02:27.077Z,23.01
2022-08-28T21:04:54.016Z,22.96
2022-08-28T21:07:22.561Z,22.94
2022-08-28T21:10:06.005Z,22.93
2022-08-28T21:12:38.296Z,22.90
2022-08-28T21:15:11.883Z,22.89
2022-08-28T21:17:39.679Z,22.90
2022-08-28T21:20:10.283Z,22.89
2022-08-28T21:22:37.870Z,22.88
2022-08-28T21:25:07.466Z,22.86
2022-08-28T21:27:34.367Z,22.85
2022-08-28T21:30:02.076Z,22.85
2022-08-28T21:32:29.621Z,22.85
2022-08-28T21:34:55.945Z,22.86
2022-08-28T21:37:22.800Z,22.86
2022-08-28T21:39:49.196Z,22.86
2022-08-28T21:42:15.764Z,22.88
2022-08-28T21:44:48.377Z,22.89
2022-08-28T21:47:20.647Z,22.90
2022-08-28T21:49:48.800Z,22.92
2022-08-28T21:52:16.228Z,22.94
2022-08-28T21:54:42.509Z,22.94
2022-08-28T21:57:09.042Z,22.97
2022-08-28T21:59:37.777Z,22.99
2022-08-28T22:02:04.976Z,23.01
2022-08-28T22:04:31.686Z,23.02
2022-08-28T22:06:58.199Z,23.03
2022-08-28T22:09:24.468Z,23.02
2022-08-28T22:11:50.802Z,23.02
2022-08-28T22:14:17.790Z,23.02
2022-08-28T22:16:44.365Z,23.02
2022-08-28T22:19:10.728Z,23.03
2022-08-28T22:22:13.343Z,23.03
2022-08-28T22:24:39.926Z,23.04
2022-08-28T22:27:06.344Z,23.05
2022-08-28T22:29:35.962Z,23.06
2022-08-28T22:32:04.821Z,23.06
2022-08-28T22:34:37.486Z,23.04
2022-08-28T22:37:04.326Z,23.04
2022-08-28T22:39:30.605Z,23.07
2022-08-28T22:41:56.867Z,23.11
2022-08-28T22:44:23.341Z,23.16
2022-08-28T22:46:49.711Z,23.19
2022-08-28T22:49:16.033Z,23.21
2022-08-28T22:51:42.298Z,23.23
2022-08-28T22:54:08.740Z,23.16
2022-08-28T22:56:35.740Z,23.00
2022-08-28T22:59:02.179Z,22.86
2022-08-28T23:01:29.230Z,22.80
2022-08-28T23:03:56.997Z,22.73
2022-08-28T23:06:23.290Z,22.78
2022-08-28T23:08:49.620Z,22.85
2022-08-28T23:11:16.364Z,22.93
2022-08-28T23:13:42.911Z,22.98
2022-08-28T23:16:09.309Z,23.02
2022-08-28T23:19:06.110Z,23.05
2022-08-28T23:21:23.698Z,23.10
2022-08-28T23:23:54.261Z,23.16
2022-08-28T23:26:21.547Z,23.21
2022-08-28T23:28:48.620Z,23.25
2022-08-28T23:31:15.064Z,23.28
2022-08-28T23:33:41.850Z,23.31
2022-08-28T23:36:09.084Z,23.31
2022-08-28T23:38:36.775Z,23.29
2022-08-28T23:41:04.577Z,23.29
2022-08-28T23:43:31.652Z,23.28
2022-08-28T23:45:58.418Z,23.27
2022-08-28T23:48:25.828Z,23.29
2022-08-28T23:50:52.441Z,23.31
2022-08-28T23:53:19.698Z,23.33
2022-08-28T23:55:46.450Z,23.34
2022-08-28T23:58:16.738Z,23.34
